Kent City, Michigan
Current Conditions -  °F | °C
As of 6:34 AM on Saturday 25 Oct 2014 (Local Time) from KFFX Reporting Station
Clear Clear  
Wind Chill: 51°   Ceiling: Unl
Heat Index: 51°   Visibility: 7mi
Dew Point: 50°   Wind: 5mph
Humidity: 95%   Direction: 250°WSW
Pressure: 29.82"   Gusts: NA
Location:  43.22°N, 85.75°W
Report Text: KFFX 251034Z AUTO 25004KT 7SM CLR 11/10 A2982 RMK AO2 T01060098
Loading
Personal Weather Stations






























Interactive Weather Map
Tropical Storm Tracking
New forecast layout! Learn more

10-Day Weather Forecast

Advertisements
Track Severe Weather on mobile